Time;durP1;ratioP1;P1;durP2;ratioP2;P2;SDS_P1;SDS_P2;PMS_P1;PMS_P2;Temp;Humidity;BMP_temperature;BMP_pressure;BME280_temperature;BME280_humidity;BME280_pressure;Samples;Min_cycle;Max_cycle;Signal;HPM_P1;HPM_P2
2022/09/23 00:02:26;;;;;;;16.75;9.63;;;6.40;99.90;;;;;;2586123;54;21204;31
2022/09/23 00:04:57;;;;;;;14.25;10.02;;;6.60;99.90;;;;;;2586138;54;20029;31
2022/09/23 00:07:32;;;;;;;16.10;9.77;;;6.70;99.90;;;;;;2604772;46;20048;31
2022/09/23 00:10:03;;;;;;;17.38;9.98;;;6.30;99.90;;;;;;2586314;54;20029;31
2022/09/23 00:12:35;;;;;;;12.67;7.83;;;6.30;99.90;;;;;;2604473;46;20038;31
2022/09/23 00:15:10;;;;;;;17.70;11.50;;;6.30;99.90;;;;;;2592913;46;20333;31
2022/09/23 00:17:42;;;;;;;13.20;9.40;;;6.20;99.90;;;;;;2586103;54;20027;31
2022/09/23 00:20:16;;;;;;;16.33;9.32;;;6.20;99.90;;;;;;2586177;54;20037;31
2022/09/23 00:22:53;;;;;;;14.20;8.53;;;6.10;99.90;;;;;;2586109;54;20837;31
2022/09/23 00:25:24;;;;;;;19.67;10.40;;;6.20;99.90;;;;;;2604859;46;20053;31
2022/09/23 00:27:56;;;;;;;15.43;10.25;;;6.10;99.90;;;;;;2586025;54;20255;31
2022/09/23 00:30:28;;;;;;;20.20;9.60;;;6.10;99.90;;;;;;2586077;54;20160;31
2022/09/23 00:32:59;;;;;;;14.77;8.85;;;6.10;99.90;;;;;;2595510;46;20050;31
2022/09/23 00:35:30;;;;;;;12.85;8.63;;;6.30;99.90;;;;;;2586125;54;20151;31
2022/09/23 00:38:05;;;;;;;14.18;9.73;;;6.10;99.90;;;;;;2586224;54;20873;31
2022/09/23 00:40:36;;;;;;;19.30;11.30;;;6.10;99.90;;;;;;2586137;54;20034;31
2022/09/23 00:43:07;;;;;;;19.65;10.65;;;6.00;99.90;;;;;;2586391;54;20909;31
2022/09/23 00:45:41;;;;;;;19.10;11.88;;;6.00;99.90;;;;;;2586122;54;20045;31
2022/09/23 00:48:13;;;;;;;15.80;10.13;;;6.10;99.90;;;;;;2586040;54;20894;31
2022/09/23 00:50:46;;;;;;;12.80;9.03;;;5.90;99.90;;;;;;2585962;54;20104;31
2022/09/23 00:53:21;;;;;;;13.77;8.43;;;6.50;99.90;;;;;;2586154;54;20752;31
2022/09/23 00:55:54;;;;;;;14.05;8.88;;;5.90;99.90;;;;;;2586062;54;21179;31
2022/09/23 00:58:27;;;;;;;13.52;8.07;;;5.90;99.90;;;;;;2602611;46;20038;31
2022/09/23 01:01:00;;;;;;;14.60;8.95;;;5.90;99.90;;;;;;2585914;54;20818;31
2022/09/23 01:03:31;;;;;;;16.60;10.85;;;6.00;99.90;;;;;;2585956;54;20890;31
2022/09/23 01:06:03;;;;;;;13.90;9.80;;;5.80;99.90;;;;;;2604687;46;20033;31
2022/09/23 01:08:40;;;;;;;14.85;10.30;;;5.80;99.90;;;;;;2586019;54;21174;31
2022/09/23 01:11:17;;;;;;;15.30;8.93;;;5.70;99.90;;;;;;2604785;46;20034;31
2022/09/23 01:13:53;;;;;;;11.80;8.80;;;5.80;99.90;;;;;;2585836;54;20053;31
2022/09/23 01:16:28;;;;;;;13.55;9.00;;;5.70;99.90;;;;;;2604356;47;20779;31
2022/09/23 01:19:07;;;;;;;12.75;8.80;;;5.70;99.90;;;;;;2585999;54;20826;31
2022/09/23 01:21:44;;;;;;;16.52;11.35;;;6.20;99.90;;;;;;2586064;54;21303;31
2022/09/23 01:24:25;;;;;;;16.63;9.25;;;5.60;99.90;;;;;;2586079;54;20881;31
2022/09/23 01:27:02;;;;;;;17.20;10.55;;;5.60;99.90;;;;;;2586056;54;20022;31
2022/09/23 01:29:58;;;;;;;13.63;8.70;;;5.70;99.90;;;;;;2586072;54;20872;31
2022/09/23 01:32:41;;;;;;;12.95;8.63;;;5.50;99.90;;;;;;2604172;46;20032;31
2022/09/23 01:35:15;;;;;;;11.83;8.20;;;5.90;99.90;;;;;;2683584;39;20364;31
2022/09/23 01:37:49;;;;;;;18.05;10.27;;;5.60;99.90;;;;;;2585016;54;20873;31
2022/09/23 01:40:27;;;;;;;16.77;9.47;;;5.50;99.90;;;;;;2584856;54;20922;31
2022/09/23 01:42:59;;;;;;;11.85;8.57;;;5.60;99.90;;;;;;2586026;54;20873;31
2022/09/23 01:45:32;;;;;;;12.33;7.77;;;5.40;99.90;;;;;;2585727;54;20033;31
2022/09/23 01:48:12;;;;;;;9.32;6.40;;;5.40;99.90;;;;;;2586005;54;20074;31
2022/09/23 01:51:00;;;;;;;11.87;7.70;;;5.40;99.90;;;;;;2585928;54;20825;31
2022/09/23 01:53:36;;;;;;;9.93;6.70;;;5.40;99.90;;;;;;2586058;54;20685;31
2022/09/23 01:56:12;;;;;;;13.13;8.20;;;5.30;99.90;;;;;;2585885;54;20118;31
2022/09/23 01:58:48;;;;;;;10.00;6.67;;;5.30;99.90;;;;;;2586006;54;20140;31
2022/09/23 02:01:22;;;;;;;12.20;8.40;;;5.30;99.90;;;;;;2604014;46;20859;31
2022/09/23 02:03:59;;;;;;;13.65;8.40;;;5.40;99.90;;;;;;2585305;54;21015;31
2022/09/23 02:06:33;;;;;;;12.15;8.23;;;5.20;99.90;;;;;;2585993;54;21096;31
2022/09/23 02:09:10;;;;;;;9.02;6.15;;;5.20;99.90;;;;;;2585669;54;20049;31
2022/09/23 02:11:44;;;;;;;9.93;6.60;;;5.50;99.90;;;;;;2585686;54;20783;31
2022/09/23 02:14:18;;;;;;;11.55;6.90;;;5.20;99.90;;;;;;2585182;54;20020;31
2022/09/23 02:16:50;;;;;;;7.50;5.60;;;5.20;99.90;;;;;;2585592;54;20104;31
2022/09/23 02:19:25;;;;;;;11.45;7.72;;;5.10;99.90;;;;;;2604458;47;20030;31
2022/09/23 02:22:01;;;;;;;13.77;8.07;;;5.10;99.90;;;;;;2603970;47;20038;31
2022/09/23 02:24:33;;;;;;;10.40;6.00;;;5.10;99.90;;;;;;2586074;54;20813;31
2022/09/23 02:27:09;;;;;;;10.10;6.00;;;5.00;99.90;;;;;;2586254;54;20353;31
2022/09/23 02:29:44;;;;;;;7.10;4.90;;;5.00;99.90;;;;;;2586513;54;20030;31
2022/09/23 02:32:17;;;;;;;9.40;6.35;;;5.00;99.90;;;;;;2605185;46;20057;31
2022/09/23 02:34:57;;;;;;;7.68;5.60;;;5.50;99.90;;;;;;2586461;54;21143;31
2022/09/23 02:37:30;;;;;;;8.30;5.65;;;5.00;99.90;;;;;;2586494;54;19958;31
2022/09/23 02:40:08;;;;;;;8.20;5.45;;;5.00;99.90;;;;;;2586678;54;20805;31
2022/09/23 02:42:44;;;;;;;10.05;5.43;;;5.20;99.90;;;;;;2586650;54;19950;31
2022/09/23 02:45:14;;;;;;;6.82;4.70;;;4.90;99.90;;;;;;2586345;54;20026;31
2022/09/23 02:47:48;;;;;;;6.82;4.57;;;4.90;99.90;;;;;;2586376;54;20866;31
2022/09/23 02:50:22;;;;;;;9.57;6.25;;;4.90;99.90;;;;;;2586779;54;20874;31
2022/09/23 02:52:54;;;;;;;9.90;5.17;;;4.80;99.90;;;;;;2586482;54;20862;31
2022/09/23 02:55:29;;;;;;;8.05;5.72;;;4.80;99.90;;;;;;2586364;54;20862;31
2022/09/23 02:58:01;;;;;;;8.55;5.45;;;5.00;99.90;;;;;;2586238;54;20026;31
2022/09/23 03:00:38;;;;;;;9.80;5.75;;;5.30;99.90;;;;;;2586346;54;20046;31
2022/09/23 03:03:19;;;;;;;14.25;7.85;;;4.70;99.90;;;;;;2586618;54;20867;31
2022/09/23 03:05:55;;;;;;;10.13;6.72;;;5.00;99.90;;;;;;2586195;54;20108;31
2022/09/23 03:08:35;;;;;;;16.23;8.43;;;4.70;99.90;;;;;;2586331;54;20049;31
2022/09/23 03:11:10;;;;;;;15.40;8.13;;;5.10;99.90;;;;;;2586589;54;20026;31
2022/09/23 03:14:03;;;;;;;15.53;7.93;;;4.70;99.90;;;;;;2586567;54;20994;31
2022/09/23 03:16:38;;;;;;;10.55;5.85;;;5.10;99.90;;;;;;2586419;54;20137;31
2022/09/23 03:19:19;;;;;;;9.75;6.30;;;4.70;99.90;;;;;;2586417;54;20835;31
2022/09/23 03:21:59;;;;;;;10.43;6.18;;;4.60;99.90;;;;;;2605182;46;20897;31
2022/09/23 03:24:33;;;;;;;10.30;6.15;;;4.90;99.90;;;;;;2586325;54;20088;31
2022/09/23 03:27:06;;;;;;;14.20;7.20;;;4.80;99.90;;;;;;2586337;54;20051;31
2022/09/23 03:29:37;;;;;;;13.77;8.95;;;4.90;99.90;;;;;;2586466;54;20058;31
2022/09/23 03:32:08;;;;;;;12.57;7.65;;;5.10;99.90;;;;;;2684167;39;21548;31
2022/09/23 03:34:39;;;;;;;12.25;8.25;;;4.60;99.90;;;;;;2586081;54;20101;31
2022/09/23 03:37:16;;;;;;;11.38;6.45;;;4.70;99.90;;;;;;2586157;54;20776;31
2022/09/23 03:39:50;;;;;;;9.82;6.55;;;4.60;99.90;;;;;;2604616;47;20773;31
2022/09/23 03:42:22;;;;;;;9.45;6.00;;;4.60;99.90;;;;;;2586204;54;20773;31
2022/09/23 03:44:57;;;;;;;11.18;7.10;;;4.60;99.90;;;;;;2586180;54;20904;31
2022/09/23 03:47:30;;;;;;;11.80;7.43;;;4.60;99.90;;;;;;2605155;46;20034;31
2022/09/23 03:50:01;;;;;;;9.70;6.10;;;4.60;99.90;;;;;;2605008;46;20749;31
2022/09/23 03:52:38;;;;;;;8.80;5.57;;;5.10;99.90;;;;;;2604479;46;20268;31
2022/09/23 03:55:12;;;;;;;11.82;6.28;;;4.60;99.90;;;;;;2586067;54;20899;31
2022/09/23 03:57:44;;;;;;;9.55;6.50;;;5.00;99.90;;;;;;2585529;54;22366;31
2022/09/23 04:00:18;;;;;;;10.27;5.75;;;4.60;99.90;;;;;;2604244;46;20212;31
2022/09/23 04:02:52;;;;;;;7.70;4.90;;;4.50;99.90;;;;;;2586359;54;20817;31
2022/09/23 04:05:23;;;;;;;10.27;5.68;;;4.50;99.90;;;;;;2586100;54;21201;31
2022/09/23 04:07:57;;;;;;;7.93;5.28;;;4.60;99.90;;;;;;2585996;54;20046;31
2022/09/23 04:10:28;;;;;;;9.37;6.43;;;4.50;99.90;;;;;;2586197;54;20030;31
2022/09/23 04:13:00;;;;;;;10.25;6.93;;;4.40;99.90;;;;;;2586003;54;20108;31
2022/09/23 04:15:31;;;;;;;9.88;6.70;;;4.60;99.90;;;;;;2586117;54;20743;31
2022/09/23 04:18:02;;;;;;;9.27;6.10;;;4.40;99.90;;;;;;2586042;54;20026;31
2022/09/23 04:20:33;;;;;;;10.67;6.23;;;4.40;99.90;;;;;;2586158;54;20029;31
2022/09/23 04:23:08;;;;;;;12.07;6.65;;;4.40;99.90;;;;;;2604175;46;21175;31
2022/09/23 04:25:46;;;;;;;10.45;6.45;;;4.40;99.90;;;;;;2604308;46;20037;31
2022/09/23 04:28:20;;;;;;;13.40;7.80;;;4.40;99.90;;;;;;2586101;54;20135;31
2022/09/23 04:30:51;;;;;;;10.35;7.15;;;4.60;99.90;;;;;;2605000;46;20028;31
2022/09/23 04:33:22;;;;;;;11.55;7.20;;;4.30;99.90;;;;;;2588203;46;20785;31
2022/09/23 04:35:57;;;;;;;10.07;6.57;;;4.30;99.90;;;;;;2585924;54;20771;31
2022/09/23 04:38:31;;;;;;;10.45;5.95;;;4.50;99.90;;;;;;2586118;54;20847;31
2022/09/23 04:41:02;;;;;;;9.30;5.15;;;4.30;99.90;;;;;;2586095;54;20026;31
2022/09/23 04:43:36;;;;;;;13.60;6.15;;;4.50;99.90;;;;;;2586010;54;20890;31
2022/09/23 04:46:10;;;;;;;14.57;7.67;;;4.50;99.90;;;;;;2604840;46;20030;31
2022/09/23 04:48:41;;;;;;;15.30;9.10;;;4.70;99.90;;;;;;2586148;54;20820;31
2022/09/23 04:51:14;;;;;;;21.83;11.05;;;4.40;99.90;;;;;;2585902;54;20945;31
2022/09/23 04:53:52;;;;;;;20.35;7.28;;;4.20;99.90;;;;;;2585736;54;21011;31
2022/09/23 04:56:25;;;;;;;7.55;5.40;;;4.70;99.90;;;;;;2585731;54;20760;31
2022/09/23 04:58:57;;;;;;;10.10;5.90;;;4.70;99.90;;;;;;2585982;54;19935;31
2022/09/23 05:01:33;;;;;;;13.77;8.20;;;4.30;99.90;;;;;;2586208;54;20054;31
2022/09/23 05:04:06;;;;;;;13.75;8.15;;;4.30;99.90;;;;;;2604598;46;20034;31
2022/09/23 05:06:38;;;;;;;21.75;11.20;;;4.60;99.90;;;;;;2586274;54;20870;31
2022/09/23 05:09:14;;;;;;;17.95;9.30;;;4.40;99.90;;;;;;2586033;54;20885;31
2022/09/23 05:11:45;;;;;;;19.65;10.30;;;4.90;99.90;;;;;;2586066;54;20027;31
2022/09/23 05:14:17;;;;;;;15.05;9.32;;;4.40;99.90;;;;;;2586239;54;20049;31
2022/09/23 05:16:51;;;;;;;15.45;9.40;;;4.90;99.90;;;;;;2585684;54;20038;31
2022/09/23 05:19:23;;;;;;;14.75;10.32;;;4.60;99.90;;;;;;2586065;54;21057;31
2022/09/23 05:21:55;;;;;;;13.67;9.10;;;4.70;99.90;;;;;;2586093;54;20026;31
2022/09/23 05:24:30;;;;;;;12.40;7.00;;;5.00;99.90;;;;;;2604546;46;20332;31
2022/09/23 05:27:05;;;;;;;15.25;8.55;;;4.70;99.90;;;;;;2585826;54;20022;31
2022/09/23 05:29:39;;;;;;;18.35;9.40;;;4.80;99.90;;;;;;2585991;54;20748;31
2022/09/23 05:32:13;;;;;;;15.98;10.20;;;4.90;99.90;;;;;;2585334;54;20759;31
2022/09/23 05:34:45;;;;;;;13.50;8.15;;;4.90;99.90;;;;;;2585981;54;20034;31
2022/09/23 05:37:18;;;;;;;14.00;8.30;;;5.00;99.90;;;;;;2585661;54;20894;31
2022/09/23 05:39:52;;;;;;;12.82;9.55;;;5.10;99.90;;;;;;2585936;54;20053;31
2022/09/23 05:42:24;;;;;;;12.35;8.68;;;5.60;99.90;;;;;;2585944;54;20854;31
2022/09/23 05:44:55;;;;;;;12.73;8.57;;;5.60;99.90;;;;;;2585940;54;19939;31
2022/09/23 05:47:29;;;;;;;9.70;7.50;;;6.00;99.90;;;;;;2586001;54;20040;31
2022/09/23 05:50:01;;;;;;;12.05;7.80;;;6.50;99.90;;;;;;2585811;54;20084;31
2022/09/23 05:52:34;;;;;;;12.45;9.50;;;7.00;99.90;;;;;;2585508;54;20753;31
2022/09/23 05:55:10;;;;;;;48.97;36.53;;;7.60;99.90;;;;;;2585738;54;20039;31
2022/09/23 05:57:41;;;;;;;17.95;14.75;;;8.10;99.90;;;;;;2585931;54;20243;31
2022/09/23 06:00:15;;;;;;;14.90;10.40;;;8.70;99.90;;;;;;2604342;46;20089;31
2022/09/23 06:02:49;;;;;;;10.05;7.90;;;9.20;99.90;;;;;;2585672;54;20819;31
2022/09/23 06:05:21;;;;;;;11.83;8.50;;;9.80;99.90;;;;;;2585803;54;20663;31
2022/09/23 06:07:53;;;;;;;11.17;7.33;;;10.40;99.90;;;;;;2585616;54;20772;31
2022/09/23 06:10:30;;;;;;;14.60;8.73;;;11.10;99.90;;;;;;2585877;54;20788;31
2022/09/23 06:13:01;;;;;;;11.75;8.20;;;11.40;99.90;;;;;;2585658;54;20025;31
2022/09/23 06:15:36;;;;;;;11.55;7.55;;;11.70;99.90;;;;;;2585750;54;20069;31
2022/09/23 06:18:08;;;;;;;17.23;9.00;;;12.10;99.90;;;;;;2585858;54;20850;31
2022/09/23 06:20:39;;;;;;;17.07;8.60;;;12.20;99.90;;;;;;2585812;54;20917;31
2022/09/23 06:23:12;;;;;;;12.13;9.67;;;12.50;99.90;;;;;;2585726;54;20847;31
2022/09/23 06:25:47;;;;;;;14.93;9.77;;;12.80;99.90;;;;;;2604525;47;20787;31
2022/09/23 06:28:19;;;;;;;14.90;8.60;;;13.10;99.90;;;;;;2585556;54;21015;31
2022/09/23 06:30:52;;;;;;;17.23;9.23;;;13.40;99.90;;;;;;2585588;54;20857;31
2022/09/23 06:33:24;;;;;;;16.42;9.00;;;13.50;99.90;;;;;;2585416;54;20139;31
2022/09/23 06:36:08;;;;;;;18.73;9.82;;;13.60;99.90;;;;;;2585428;54;20018;31
2022/09/23 06:38:43;;;;;;;14.82;8.80;;;13.70;99.90;;;;;;2585809;54;20029;31
2022/09/23 06:41:21;;;;;;;14.35;9.32;;;13.90;99.90;;;;;;2604568;47;20030;31
2022/09/23 06:43:53;;;;;;;13.07;9.23;;;14.10;99.90;;;;;;2585736;54;20709;31
2022/09/23 06:46:25;;;;;;;14.45;8.20;;;14.30;99.90;;;;;;2585680;54;20888;31
2022/09/23 06:48:56;;;;;;;12.85;8.85;;;14.50;99.90;;;;;;2585683;54;20026;31
2022/09/23 06:51:30;;;;;;;13.40;8.07;;;14.80;99.90;;;;;;2584802;54;20033;31
2022/09/23 06:54:03;;;;;;;13.73;8.20;;;14.80;99.90;;;;;;2585719;54;20873;31
2022/09/23 06:56:38;;;;;;;17.00;9.07;;;14.80;99.90;;;;;;2585680;54;20800;31
2022/09/23 06:59:15;;;;;;;16.50;9.43;;;15.10;99.90;;;;;;2585653;54;20081;31
2022/09/23 07:01:49;;;;;;;13.45;9.68;;;15.30;99.90;;;;;;2603259;47;20043;31
2022/09/23 07:04:23;;;;;;;14.95;9.75;;;15.40;99.90;;;;;;2585624;47;20081;31
2022/09/23 07:07:00;;;;;;;13.02;8.95;;;15.50;99.90;;;;;;2585315;54;20944;31
2022/09/23 07:09:31;;;;;;;15.30;8.93;;;15.70;99.90;;;;;;2585404;54;20126;31
2022/09/23 07:12:09;;;;;;;13.10;8.75;;;15.90;99.90;;;;;;2588666;47;20035;31
2022/09/23 07:14:40;;;;;;;12.65;8.57;;;16.20;99.90;;;;;;2586259;54;20844;31
2022/09/23 07:17:13;;;;;;;12.27;8.65;;;16.30;99.90;;;;;;2586693;54;20070;31
2022/09/23 07:19:44;;;;;;;14.90;8.68;;;16.60;99.90;;;;;;2586408;54;20030;31
2022/09/23 07:22:16;;;;;;;12.45;8.85;;;16.70;99.90;;;;;;2586270;54;20923;31
2022/09/23 07:24:50;;;;;;;13.35;9.15;;;16.90;99.90;;;;;;2586330;54;20884;31
2022/09/23 07:27:28;;;;;;;11.80;8.53;;;17.00;99.90;;;;;;2586589;46;20018;31
2022/09/23 07:30:02;;;;;;;11.52;8.15;;;17.20;99.90;;;;;;2589585;54;21101;31
2022/09/23 07:32:33;;;;;;;12.52;8.65;;;17.30;99.90;;;;;;2586381;54;20023;31
2022/09/23 07:35:17;;;;;;;10.50;8.10;;;17.50;99.90;;;;;;2586390;54;20023;31
2022/09/23 07:37:49;;;;;;;16.27;9.30;;;17.70;99.90;;;;;;2585824;54;20222;31
2022/09/23 07:40:20;;;;;;;11.97;8.20;;;17.80;99.90;;;;;;2586101;54;21211;31
2022/09/23 07:42:55;;;;;;;16.15;9.50;;;18.00;99.90;;;;;;2586195;54;20027;31
2022/09/23 07:45:30;;;;;;;12.85;9.05;;;18.10;99.90;;;;;;2586401;54;20030;31
2022/09/23 07:48:05;;;;;;;13.93;9.20;;;18.20;99.90;;;;;;2586265;54;20870;31
2022/09/23 07:50:36;;;;;;;15.32;9.50;;;18.30;99.90;;;;;;2586145;54;20106;31
2022/09/23 07:53:11;;;;;;;17.85;9.27;;;18.50;99.90;;;;;;2603725;46;20901;31
2022/09/23 07:55:42;;;;;;;18.25;10.30;;;18.70;99.90;;;;;;2586468;54;20027;31
2022/09/23 07:58:17;;;;;;;14.95;9.90;;;18.80;99.90;;;;;;2587476;46;20049;31
2022/09/23 08:00:52;;;;;;;13.77;9.68;;;19.00;99.90;;;;;;2604921;46;20030;31
2022/09/23 08:03:25;;;;;;;17.55;10.30;;;19.20;99.90;;;;;;2605187;46;20026;31
2022/09/23 08:05:56;;;;;;;17.63;11.20;;;19.30;99.90;;;;;;2586231;54;20902;31
2022/09/23 08:08:29;;;;;;;15.70;11.00;;;19.30;99.90;;;;;;2586114;54;20023;31
2022/09/23 08:11:04;;;;;;;15.32;10.95;;;19.40;99.90;;;;;;2586303;54;20122;31
2022/09/23 08:13:38;;;;;;;18.80;12.43;;;19.60;99.90;;;;;;2586296;54;20022;31
2022/09/23 08:16:10;;;;;;;22.65;12.43;;;19.60;99.90;;;;;;2586427;54;20046;31
2022/09/23 08:18:45;;;;;;;18.13;12.48;;;19.80;99.90;;;;;;2586941;46;20109;31
2022/09/23 08:21:20;;;;;;;21.10;13.05;;;19.90;99.90;;;;;;2585948;54;20026;31
2022/09/23 08:23:51;;;;;;;23.10;13.30;;;19.80;99.90;;;;;;2586162;54;19934;31
2022/09/23 08:26:22;;;;;;;21.85;14.20;;;19.90;99.90;;;;;;2586509;54;20018;31
2022/09/23 08:28:57;;;;;;;23.50;15.15;;;20.00;99.90;;;;;;2586074;54;20849;31
2022/09/23 08:31:29;;;;;;;24.50;16.15;;;20.10;99.90;;;;;;2586436;54;20874;31
2022/09/23 08:34:01;;;;;;;23.23;15.25;;;20.20;99.90;;;;;;2586098;54;20157;31
2022/09/23 08:36:33;;;;;;;30.90;18.83;;;20.40;99.90;;;;;;2586255;54;20728;31
2022/09/23 08:39:06;;;;;;;22.17;16.30;;;20.50;99.90;;;;;;2586213;54;20027;31
2022/09/23 08:41:42;;;;;;;28.90;17.00;;;20.60;99.90;;;;;;2586413;54;20779;31
2022/09/23 08:44:19;;;;;;;28.77;18.67;;;20.70;99.90;;;;;;2586200;54;20821;31
2022/09/23 08:46:52;;;;;;;31.35;18.00;;;20.60;99.90;;;;;;2588931;54;20836;31
2022/09/23 08:49:27;;;;;;;24.80;16.60;;;20.70;99.90;;;;;;2586088;54;20825;31
2022/09/23 08:51:58;;;;;;;22.30;14.40;;;20.80;99.90;;;;;;2604877;46;20145;31
2022/09/23 08:54:30;;;;;;;20.02;14.25;;;21.00;99.90;;;;;;2586157;54;20907;31
2022/09/23 08:57:02;;;;;;;23.77;13.82;;;21.10;99.90;;;;;;2586312;54;20089;31
2022/09/23 08:59:37;;;;;;;26.35;14.80;;;21.20;99.90;;;;;;2585871;54;20839;31
2022/09/23 09:02:15;;;;;;;20.65;13.77;;;21.40;99.90;;;;;;2586126;54;20023;31
2022/09/23 09:04:47;;;;;;;17.15;10.55;;;21.30;99.90;;;;;;2586081;54;20019;31
2022/09/23 09:07:20;;;;;;;15.30;10.18;;;21.30;99.90;;;;;;2585744;54;20022;31
2022/09/23 09:10:13;;;;;;;19.50;10.02;;;21.30;99.90;;;;;;2585766;54;20036;31
2022/09/23 09:12:45;;;;;;;14.00;9.40;;;21.20;99.90;;;;;;2586087;54;20046;31
2022/09/23 09:15:21;;;;;;;21.00;9.60;;;21.40;99.90;;;;;;2586099;54;20262;31
2022/09/23 09:18:01;;;;;;;20.42;8.45;;;21.40;99.90;;;;;;2586216;54;20830;31
2022/09/23 09:20:38;;;;;;;12.63;7.27;;;21.50;99.90;;;;;;2604999;46;20854;31
2022/09/23 09:23:15;;;;;;;11.65;6.75;;;21.50;99.90;;;;;;2586165;54;21042;31
2022/09/23 09:25:48;;;;;;;10.77;7.22;;;21.70;99.90;;;;;;2586145;54;20057;31
2022/09/23 09:28:29;;;;;;;12.18;7.35;;;21.70;99.90;;;;;;2586101;54;20048;31
2022/09/23 09:31:10;;;;;;;12.95;7.95;;;21.90;99.90;;;;;;2585998;54;20976;31
2022/09/23 09:33:46;;;;;;;13.30;7.65;;;21.90;99.90;;;;;;2586062;54;20105;31
2022/09/23 09:36:24;;;;;;;16.08;7.45;;;21.80;99.90;;;;;;2587797;54;20046;31
2022/09/23 09:38:58;;;;;;;9.90;5.60;;;21.80;99.90;;;;;;2585737;54;20030;31
2022/09/23 09:41:31;;;;;;;8.87;5.53;;;21.80;99.90;;;;;;2601813;46;20254;31
2022/09/23 09:44:03;;;;;;;6.40;4.30;;;21.80;99.90;;;;;;2585852;54;20033;31
2022/09/23 09:46:48;;;;;;;8.10;4.15;;;21.80;99.90;;;;;;2585402;54;20833;31
2022/09/23 09:49:24;;;;;;;10.50;4.90;;;21.80;99.90;;;;;;2586234;54;20916;31
2022/09/23 09:52:13;;;;;;;5.30;4.00;;;21.70;99.90;;;;;;2604937;46;20789;31
2022/09/23 09:54:44;;;;;;;7.75;4.10;;;21.90;99.90;;;;;;2586274;54;20898;31
2022/09/23 09:57:33;;;;;;;7.95;4.65;;;21.90;99.90;;;;;;2585879;54;20417;31
2022/09/23 10:00:35;;;;;;;6.35;3.83;;;21.90;99.80;;;;;;2586266;54;20892;31
2022/09/23 10:03:26;;;;;;;7.65;3.88;;;21.80;99.90;;;;;;2604631;46;20042;31
2022/09/23 10:05:58;;;;;;;4.65;3.40;;;21.60;99.90;;;;;;2585689;54;20931;31
2022/09/23 10:08:33;;;;;;;5.80;3.25;;;21.10;99.90;;;;;;2589092;46;20936;31
2022/09/23 10:11:07;;;;;;;6.80;3.83;;;20.90;99.90;;;;;;2604535;46;20863;31
2022/09/23 10:13:38;;;;;;;8.15;3.60;;;20.80;99.90;;;;;;2585795;54;21269;31
2022/09/23 10:16:12;;;;;;;8.30;4.50;;;20.70;99.90;;;;;;2585147;54;20857;31
2022/09/23 10:18:55;;;;;;;10.50;4.30;;;20.40;99.90;;;;;;2585805;54;20018;31
2022/09/23 10:21:35;;;;;;;4.30;3.10;;;20.40;99.90;;;;;;2586085;54;19941;31
2022/09/23 10:24:07;;;;;;;4.93;2.28;;;20.60;99.90;;;;;;2585757;54;20918;31
2022/09/23 10:26:45;;;;;;;4.70;2.17;;;20.60;99.90;;;;;;2585532;54;20907;31
2022/09/23 10:29:24;;;;;;;5.60;2.60;;;20.50;99.90;;;;;;2585624;54;20022;31
2022/09/23 10:32:18;;;;;;;3.75;2.10;;;20.40;99.90;;;;;;2585713;54;20936;31
2022/09/23 10:34:53;;;;;;;2.67;1.25;;;20.60;99.90;;;;;;2585951;54;20026;31
2022/09/23 10:37:30;;;;;;;10.13;2.28;;;20.40;99.60;;;;;;2604642;47;19935;31
2022/09/23 10:48:32;;;;;;;2.80;1.30;;;20.10;99.30;;;;;;2586684;54;20022;31
2022/09/23 10:51:13;;;;;;;4.70;1.02;;;19.90;99.90;;;;;;2586459;54;21171;31
2022/09/23 10:53:50;;;;;;;1.92;0.80;;;19.80;99.90;;;;;;2586648;54;20025;31
2022/09/23 10:56:30;;;;;;;2.60;1.38;;;19.90;98.60;;;;;;2586828;54;20042;31
2022/09/23 10:59:13;;;;;;;6.85;1.88;;;20.00;99.30;;;;;;2590034;54;20049;31
2022/09/23 11:01:53;;;;;;;4.70;1.30;;;20.10;98.40;;;;;;2586422;54;20068;31
2022/09/23 11:04:36;;;;;;;3.15;1.30;;;20.20;99.30;;;;;;2587435;54;20023;-81
2022/09/23 11:07:20;;;;;;;1.33;0.85;;;20.20;98.20;;;;;;2586205;54;20104;31
2022/09/23 11:10:24;;;;;;;2.83;1.20;;;20.00;98.00;;;;;;2605362;46;19941;31
2022/09/23 11:13:22;;;;;;;1.77;0.75;;;19.90;98.20;;;;;;2586287;54;20030;31
2022/09/23 11:15:58;;;;;;;4.53;1.00;;;19.60;99.90;;;;;;2586408;54;20826;31
2022/09/23 11:18:47;;;;;;;3.78;1.00;;;19.50;99.90;;;;;;2586263;54;20046;31
2022/09/23 11:21:41;;;;;;;1.77;0.77;;;19.40;98.80;;;;;;2586173;54;20800;31
2022/09/23 11:24:35;;;;;;;3.23;1.10;;;19.60;99.20;;;;;;2589047;39;22315;31
2022/09/23 11:27:13;;;;;;;2.70;0.95;;;19.60;99.00;;;;;;2586614;54;20785;31
2022/09/23 11:30:07;;;;;;;2.20;0.70;;;19.70;99.60;;;;;;2591142;39;20382;31
2022/09/23 11:32:53;;;;;;;2.95;0.70;;;19.70;98.30;;;;;;2605438;46;20257;31
2022/09/23 11:35:25;;;;;;;3.05;0.70;;;19.50;99.10;;;;;;2604481;46;19942;31
2022/09/23 11:37:59;;;;;;;2.42;0.60;;;19.30;97.60;;;;;;2586538;54;20062;31
2022/09/23 11:40:36;;;;;;;1.10;0.60;;;19.10;97.20;;;;;;2586379;54;20026;31
2022/09/23 11:43:20;;;;;;;1.00;0.90;;;19.10;97.30;;;;;;2586249;54;20254;31
2022/09/23 11:45:57;;;;;;;2.40;0.88;;;19.00;97.90;;;;;;2586573;54;20027;31
2022/09/23 11:48:34;;;;;;;2.13;0.80;;;19.10;97.80;;;;;;2586129;54;20038;31
2022/09/23 11:51:08;;;;;;;2.10;0.73;;;19.00;97.80;;;;;;2586468;54;20023;31
2022/09/23 11:53:42;;;;;;;1.77;0.70;;;18.70;98.30;;;;;;2586191;54;20108;31
2022/09/23 11:56:20;;;;;;;2.05;0.80;;;18.80;97.70;;;;;;2605104;46;20732;31
2022/09/23 11:59:08;;;;;;;3.08;0.90;;;18.90;97.00;;;;;;2586097;54;20057;31
2022/09/23 12:01:41;;;;;;;4.40;0.80;;;18.90;97.40;;;;;;2586565;54;20023;31
2022/09/23 12:04:21;;;;;;;2.00;0.60;;;19.00;98.60;;;;;;2586544;54;20259;31
2022/09/23 12:06:56;;;;;;;2.25;0.50;;;18.90;97.50;;;;;;2586505;54;21068;31
2022/09/23 12:09:31;;;;;;;4.50;0.65;;;18.90;98.20;;;;;;2586984;54;20022;31
2022/09/23 12:12:31;;;;;;;1.70;0.63;;;18.80;98.80;;;;;;2604569;46;20901;31
2022/09/23 12:15:06;;;;;;;2.47;0.43;;;18.70;97.70;;;;;;2589952;46;20081;31
2022/09/23 12:17:53;;;;;;;2.55;0.60;;;18.60;98.50;;;;;;2605003;46;20989;31
2022/09/23 12:20:33;;;;;;;3.40;0.60;;;18.60;99.90;;;;;;2585884;54;20033;31
2022/09/23 12:23:12;;;;;;;1.70;0.40;;;18.50;99.90;;;;;;2586202;54;20317;31
2022/09/23 12:25:46;;;;;;;2.05;0.40;;;18.40;99.20;;;;;;2586488;54;20871;31
2022/09/23 12:28:23;;;;;;;2.40;0.80;;;18.40;99.90;;;;;;2605009;46;20030;31
2022/09/23 12:30:56;;;;;;;1.95;0.55;;;18.50;99.10;;;;;;2586885;46;20484;31
2022/09/23 12:33:32;;;;;;;1.80;0.63;;;18.60;98.30;;;;;;2585982;54;20033;31
2022/09/23 12:36:07;;;;;;;2.15;0.55;;;18.60;99.70;;;;;;2586301;54;20890;31
2022/09/23 12:38:41;;;;;;;2.08;0.45;;;18.70;98.60;;;;;;2586391;54;20091;31
2022/09/23 12:41:25;;;;;;;0.97;0.40;;;18.80;98.30;;;;;;2586074;54;20892;31
2022/09/23 12:44:01;;;;;;;0.90;0.60;;;18.70;97.30;;;;;;2586487;54;20842;31
2022/09/23 12:46:34;;;;;;;2.55;0.70;;;18.70;97.00;;;;;;2604653;46;20948;31
2022/09/23 12:49:07;;;;;;;1.37;0.50;;;18.60;97.90;;;;;;2585790;54;20097;31
2022/09/23 12:51:40;;;;;;;1.70;0.50;;;18.60;98.10;;;;;;2585940;54;21217;31
2022/09/23 12:54:25;;;;;;;1.60;0.60;;;18.60;97.60;;;;;;2586285;54;20898;31
2022/09/23 12:57:04;;;;;;;1.13;0.60;;;18.50;98.90;;;;;;2604881;46;20027;31
2022/09/23 12:59:59;;;;;;;1.50;0.55;;;18.50;98.60;;;;;;2585733;54;20579;31
2022/09/23 13:02:36;;;;;;;1.63;0.60;;;18.50;97.00;;;;;;2586354;54;20894;31
2022/09/23 13:08:19;;;;;;;1.40;0.65;;;18.40;98.70;;;;;;2585746;54;20020;31
2022/09/23 13:10:51;;;;;;;1.88;1.05;;;18.40;97.20;;;;;;2584876;54;20035;31
2022/09/23 13:13:26;;;;;;;1.70;0.50;;;18.40;97.10;;;;;;2604576;46;20080;31
2022/09/23 13:16:12;;;;;;;1.60;0.52;;;18.40;98.10;;;;;;2586056;54;20026;31
2022/09/23 13:18:53;;;;;;;2.55;0.80;;;18.30;99.50;;;;;;2586161;54;20881;31
2022/09/23 13:21:41;;;;;;;4.25;0.55;;;18.30;99.90;;;;;;2586117;54;20892;31
2022/09/23 13:24:20;;;;;;;3.42;0.70;;;18.30;99.80;;;;;;2604653;46;20065;31
2022/09/23 13:26:52;;;;;;;1.13;0.60;;;18.20;97.80;;;;;;2585835;54;20022;31
2022/09/23 13:29:28;;;;;;;7.03;1.60;;;18.20;97.90;;;;;;2586380;46;20025;31
2022/09/23 13:32:04;;;;;;;1.95;0.60;;;18.20;98.50;;;;;;2586348;54;20952;31
2022/09/23 13:34:37;;;;;;;1.00;0.60;;;18.10;97.90;;;;;;2586093;54;20890;31
2022/09/23 13:37:15;;;;;;;1.93;0.37;;;18.20;98.10;;;;;;2585789;54;20034;31
2022/09/23 13:39:54;;;;;;;1.20;0.50;;;18.20;98.30;;;;;;2586843;46;22405;31
2022/09/23 13:42:28;;;;;;;3.70;0.40;;;18.10;97.10;;;;;;2586089;54;20950;31
2022/09/23 13:45:02;;;;;;;1.50;0.50;;;18.10;97.90;;;;;;2586171;54;20030;31
2022/09/23 13:47:37;;;;;;;1.37;0.70;;;18.00;97.60;;;;;;2585775;54;20292;31
2022/09/23 13:50:16;;;;;;;1.15;0.60;;;18.00;97.80;;;;;;2585593;54;20025;31